createdAt,value
2018-06-20T00:00:26.182Z,0.00
2018-06-20T00:01:26.116Z,0.00
2018-06-20T00:02:26.056Z,0.00
2018-06-20T00:03:26.006Z,0.00
2018-06-20T00:04:25.951Z,0.00
2018-06-20T00:05:25.878Z,0.00
2018-06-20T00:06:25.822Z,0.00
2018-06-20T00:07:25.789Z,0.00
2018-06-20T00:08:25.698Z,0.00
2018-06-20T00:09:25.637Z,0.00
2018-06-20T00:10:25.579Z,0.00
2018-06-20T00:11:25.531Z,0.00
2018-06-20T00:12:25.458Z,0.00
2018-06-20T00:13:25.399Z,0.00
2018-06-20T00:14:25.336Z,0.00
2018-06-20T00:15:25.280Z,0.00
2018-06-20T00:16:25.230Z,0.00
2018-06-20T00:17:25.158Z,0.00
2018-06-20T00:18:25.100Z,0.00
2018-06-20T00:19:25.051Z,0.00
2018-06-20T00:20:24.979Z,0.00
2018-06-20T00:21:24.919Z,0.00
2018-06-20T00:22:24.861Z,0.00
2018-06-20T00:23:24.806Z,0.00
2018-06-20T00:24:24.743Z,0.00
2018-06-20T00:25:24.686Z,0.00
2018-06-20T00:26:24.622Z,0.00
2018-06-20T00:27:24.562Z,0.00
2018-06-20T00:28:24.503Z,0.00
2018-06-20T00:29:24.448Z,0.00
2018-06-20T00:30:24.389Z,0.00
2018-06-20T00:31:24.328Z,0.00
2018-06-20T00:32:24.267Z,0.00
2018-06-20T00:33:24.214Z,0.00
2018-06-20T00:34:24.149Z,0.00
2018-06-20T00:35:24.089Z,0.00
2018-06-20T00:36:24.028Z,0.00
2018-06-20T00:37:23.972Z,0.00
2018-06-20T00:38:23.909Z,0.00
2018-06-20T00:39:23.850Z,0.00
2018-06-20T00:40:23.791Z,0.00
2018-06-20T00:41:23.728Z,0.00
2018-06-20T00:42:23.678Z,0.00
2018-06-20T00:43:23.614Z,0.00
2018-06-20T00:44:23.556Z,0.00
2018-06-20T00:45:23.496Z,0.00
2018-06-20T00:46:23.439Z,0.00
2018-06-20T00:47:23.378Z,0.00
2018-06-20T00:48:23.323Z,0.00
2018-06-20T00:49:23.253Z,0.00
2018-06-20T00:50:23.195Z,0.00
2018-06-20T00:51:23.141Z,0.00
2018-06-20T00:52:23.084Z,0.00
2018-06-20T00:53:23.019Z,0.00
2018-06-20T00:54:22.968Z,0.00
2018-06-20T00:55:22.902Z,0.00
2018-06-20T00:56:22.840Z,0.00
2018-06-20T00:57:22.780Z,0.00
2018-06-20T00:58:22.729Z,0.00
2018-06-20T00:59:22.661Z,0.00
2018-06-20T01:00:22.609Z,0.00
2018-06-20T01:01:22.543Z,0.00
2018-06-20T01:02:22.483Z,0.00
2018-06-20T01:03:22.422Z,0.00
2018-06-20T01:04:22.367Z,0.00
2018-06-20T01:05:22.305Z,0.00
2018-06-20T01:06:22.245Z,0.00
2018-06-20T01:07:22.185Z,0.00
2018-06-20T01:08:22.134Z,0.00
2018-06-20T01:09:22.063Z,0.00
2018-06-20T01:10:22.004Z,0.00
2018-06-20T01:11:21.944Z,0.00
2018-06-20T01:12:21.886Z,0.00
2018-06-20T01:13:21.836Z,0.00
2018-06-20T01:14:21.765Z,0.00
2018-06-20T01:15:21.705Z,0.00
2018-06-20T01:16:21.648Z,0.00
2018-06-20T01:17:21.594Z,0.00
2018-06-20T01:18:21.527Z,0.00
2018-06-20T01:19:21.466Z,0.00
2018-06-20T01:20:21.410Z,0.00
2018-06-20T01:21:21.355Z,0.00
2018-06-20T01:22:21.297Z,0.00
2018-06-20T01:23:21.229Z,0.00
2018-06-20T01:24:21.171Z,0.00
2018-06-20T01:25:21.112Z,0.00
2018-06-20T01:26:21.047Z,0.00
2018-06-20T01:27:20.990Z,0.00
2018-06-20T01:28:20.932Z,0.00
2018-06-20T01:29:20.869Z,0.00
2018-06-20T01:30:20.810Z,0.00
2018-06-20T01:31:20.748Z,0.00
2018-06-20T01:32:20.691Z,0.00
2018-06-20T01:33:20.627Z,0.00
2018-06-20T01:34:20.569Z,0.00
2018-06-20T01:35:20.509Z,0.00
2018-06-20T01:36:20.449Z,0.00
2018-06-20T01:37:20.391Z,0.00
2018-06-20T01:38:20.331Z,0.00
2018-06-20T01:39:20.266Z,0.00
2018-06-20T01:40:20.208Z,0.00
2018-06-20T01:41:20.148Z,0.00
2018-06-20T01:42:20.087Z,0.00
2018-06-20T01:43:20.033Z,0.00
2018-06-20T01:44:19.967Z,0.00
2018-06-20T01:45:19.907Z,0.00
2018-06-20T01:46:19.850Z,0.00
2018-06-20T01:47:19.796Z,0.00
2018-06-20T01:48:19.734Z,0.00
2018-06-20T01:49:19.671Z,0.00
2018-06-20T01:50:19.602Z,0.00
2018-06-20T01:51:19.555Z,0.00
2018-06-20T01:52:19.493Z,0.00
2018-06-20T01:53:19.427Z,0.00
2018-06-20T01:54:19.369Z,0.00
2018-06-20T01:55:19.309Z,0.00
2018-06-20T01:56:19.249Z,0.00
2018-06-20T01:57:19.189Z,4.00
2018-06-20T01:58:19.128Z,4.00
2018-06-20T01:59:19.070Z,4.00
2018-06-20T02:00:19.008Z,4.00
2018-06-20T02:01:18.948Z,0.00
2018-06-20T02:02:18.887Z,0.00
2018-06-20T02:03:18.829Z,4.00
2018-06-20T02:04:18.780Z,4.00
2018-06-20T02:05:18.711Z,4.00
2018-06-20T02:06:18.650Z,4.00
2018-06-20T02:07:18.586Z,4.00
2018-06-20T02:08:18.534Z,4.00
2018-06-20T02:09:18.469Z,4.00
2018-06-20T02:10:18.404Z,8.00
2018-06-20T02:11:18.346Z,4.00
2018-06-20T02:12:18.291Z,8.00
2018-06-20T02:13:18.228Z,8.00
2018-06-20T02:14:18.173Z,8.00
2018-06-20T02:15:18.107Z,8.00
2018-06-20T02:16:18.049Z,8.00
2018-06-20T02:17:17.992Z,16.00
2018-06-20T02:18:17.932Z,16.00
2018-06-20T02:19:17.869Z,16.00
2018-06-20T02:20:17.813Z,16.00
2018-06-20T02:21:17.754Z,20.00
2018-06-20T02:22:17.686Z,24.00
2018-06-20T02:23:17.633Z,24.00
2018-06-20T02:24:17.570Z,28.00
2018-06-20T02:25:17.508Z,28.00
2018-06-20T02:26:17.450Z,36.00
2018-06-20T02:27:17.388Z,36.00
2018-06-20T02:28:17.332Z,44.00
2018-06-20T02:29:17.270Z,48.00
2018-06-20T02:30:17.221Z,56.00
2018-06-20T02:31:17.157Z,60.00
2018-06-20T02:32:17.097Z,64.00
2018-06-20T02:33:17.033Z,72.00
2018-06-20T02:34:16.970Z,80.00
2018-06-20T02:35:16.914Z,88.00
2018-06-20T02:36:16.851Z,96.00
2018-06-20T02:37:16.790Z,100.00
2018-06-20T02:38:16.741Z,108.00
2018-06-20T02:39:16.677Z,116.00
2018-06-20T02:40:16.619Z,124.00
2018-06-20T02:41:16.556Z,128.00
2018-06-20T02:42:16.495Z,136.00
2018-06-20T02:43:16.447Z,144.00
2018-06-20T02:44:16.380Z,152.00
2018-06-20T02:45:16.318Z,164.00
2018-06-20T02:46:16.253Z,180.00
2018-06-20T02:47:16.197Z,196.00
2018-06-20T02:48:16.140Z,208.00
2018-06-20T02:49:16.071Z,224.00
2018-06-20T02:50:16.019Z,236.00
2018-06-20T02:51:15.962Z,244.00
2018-06-20T02:52:15.899Z,256.00
2018-06-20T02:53:15.848Z,276.00
2018-06-20T02:54:15.775Z,292.00
2018-06-20T02:55:15.717Z,316.00
2018-06-20T02:56:15.657Z,336.00
2018-06-20T02:57:15.597Z,352.00
2018-06-20T02:58:15.540Z,372.00
2018-06-20T02:59:15.481Z,384.00
2018-06-20T03:00:15.416Z,412.00
2018-06-20T03:01:15.358Z,444.00
2018-06-20T03:02:15.316Z,460.00
2018-06-20T03:03:15.263Z,476.00
2018-06-20T03:04:15.183Z,496.00
2018-06-20T03:05:15.143Z,516.00
2018-06-20T03:06:15.069Z,540.00
2018-06-20T03:07:15.015Z,552.00
2018-06-20T03:08:14.954Z,564.00
2018-06-20T03:09:14.895Z,580.00
2018-06-20T03:10:14.831Z,596.00
2018-06-20T03:11:14.770Z,624.00
2018-06-20T03:12:14.708Z,652.00
2018-06-20T03:13:14.647Z,680.00
2018-06-20T03:14:14.582Z,708.00
2018-06-20T03:15:14.527Z,740.00
2018-06-20T03:16:14.462Z,764.00
2018-06-20T03:17:14.401Z,788.00
2018-06-20T03:18:14.340Z,824.00
2018-06-20T03:19:14.281Z,876.00
2018-06-20T03:20:14.226Z,912.00
2018-06-20T03:21:14.162Z,948.00
2018-06-20T03:22:14.110Z,980.00
2018-06-20T03:23:14.049Z,1004.00
2018-06-20T03:24:13.987Z,1036.00
2018-06-20T03:25:13.928Z,1064.00
2018-06-20T03:26:13.864Z,1092.00
2018-06-20T03:27:13.861Z,1160.00
2018-06-20T03:28:13.745Z,1176.00
2018-06-20T03:29:13.685Z,1196.00
2018-06-20T03:30:13.629Z,1224.00
2018-06-20T03:31:13.565Z,1268.00
2018-06-20T03:32:13.507Z,1324.00
2018-06-20T03:33:13.447Z,1344.00
2018-06-20T03:34:13.397Z,1356.00
2018-06-20T03:35:13.332Z,1360.00
2018-06-20T03:36:13.275Z,1404.00
2018-06-20T03:37:13.207Z,1432.00
2018-06-20T03:38:13.146Z,1476.00
2018-06-20T03:39:13.090Z,1532.00
2018-06-20T03:40:13.032Z,1564.00
2018-06-20T03:41:12.966Z,1612.00
2018-06-20T03:42:12.917Z,1656.00
2018-06-20T03:43:12.860Z,1684.00
2018-06-20T03:44:12.794Z,1708.00
2018-06-20T03:45:12.737Z,1716.00
2018-06-20T03:46:12.700Z,1760.00
2018-06-20T03:47:12.616Z,1760.00
2018-06-20T03:48:12.557Z,1748.00
2018-06-20T03:49:12.513Z,1812.00
2018-06-20T03:50:12.434Z,1844.00
2018-06-20T03:51:12.392Z,1832.00
2018-06-20T03:52:12.331Z,1824.00
2018-06-20T03:53:12.259Z,1908.00
2018-06-20T03:54:12.235Z,1916.00
2018-06-20T03:55:12.142Z,1932.00
2018-06-20T03:56:12.082Z,1916.00
2018-06-20T03:57:12.036Z,1896.00
2018-06-20T03:58:11.971Z,1844.00
2018-06-20T03:59:11.909Z,1792.00
2018-06-20T04:00:11.871Z,1756.00
2018-06-20T04:01:11.786Z,1752.00
2018-06-20T04:02:11.790Z,1764.00
2018-06-20T04:03:11.672Z,1792.00
2018-06-20T04:04:11.611Z,1804.00
2018-06-20T04:05:11.556Z,1764.00
2018-06-20T04:06:11.487Z,1724.00
2018-06-20T04:07:11.428Z,1724.00
2018-06-20T04:08:11.372Z,1740.00
2018-06-20T04:09:11.312Z,1760.00
2018-06-20T04:10:11.254Z,1780.00
2018-06-20T04:11:11.215Z,1824.00
2018-06-20T04:12:11.134Z,1868.00
2018-06-20T04:13:11.071Z,1928.00
2018-06-20T04:14:11.018Z,1976.00
2018-06-20T04:15:10.961Z,2004.00
2018-06-20T04:16:10.899Z,2012.00
2018-06-20T04:17:10.839Z,2052.00
2018-06-20T04:18:10.797Z,2128.00
2018-06-20T04:19:10.718Z,2196.00
2018-06-20T04:20:10.661Z,2268.00
2018-06-20T04:21:10.605Z,2324.00
2018-06-20T04:22:10.542Z,2424.00
2018-06-20T04:23:10.481Z,2564.00
2018-06-20T04:24:10.423Z,2580.00
2018-06-20T04:25:10.362Z,2588.00
2018-06-20T04:26:10.307Z,2616.00
2018-06-20T04:27:10.249Z,2648.00
2018-06-20T04:28:10.194Z,2668.00
2018-06-20T04:29:10.133Z,2644.00
2018-06-20T04:30:10.064Z,2684.00
2018-06-20T04:31:10.006Z,2788.00
2018-06-20T04:32:09.950Z,2852.00
2018-06-20T04:33:09.888Z,2892.00
2018-06-20T04:34:09.835Z,2968.00
2018-06-20T04:35:09.787Z,3052.00
2018-06-20T04:36:09.710Z,3076.00
2018-06-20T04:37:09.656Z,3100.00
2018-06-20T04:38:09.597Z,3096.00
2018-06-20T04:39:09.543Z,3044.00
2018-06-20T04:40:09.478Z,3072.00
2018-06-20T04:41:09.422Z,3124.00
2018-06-20T04:42:09.358Z,3156.00
2018-06-20T04:43:09.309Z,3164.00
2018-06-20T04:44:09.240Z,3164.00
2018-06-20T04:45:09.182Z,3160.00
2018-06-20T04:46:09.127Z,3196.00
2018-06-20T04:47:09.099Z,3216.00
2018-06-20T04:48:09.013Z,3268.00
2018-06-20T04:49:08.948Z,3340.00
2018-06-20T04:50:08.889Z,3348.00
2018-06-20T04:51:08.829Z,3324.00
2018-06-20T04:52:08.774Z,3296.00
2018-06-20T04:53:08.713Z,3320.00
2018-06-20T04:54:08.655Z,3364.00
2018-06-20T04:55:08.596Z,3408.00
2018-06-20T04:56:08.536Z,3472.00
2018-06-20T04:57:08.478Z,3564.00
2018-06-20T04:58:08.419Z,3608.00
2018-06-20T04:59:08.369Z,3608.00
2018-06-20T05:00:08.303Z,3596.00
2018-06-20T05:01:08.247Z,3600.00
2018-06-20T05:02:08.187Z,3612.00
2018-06-20T05:03:08.122Z,3660.00
2018-06-20T05:04:08.069Z,3732.00
2018-06-20T05:05:08.029Z,3872.00
2018-06-20T05:06:07.950Z,4044.00
2018-06-20T05:07:07.899Z,4244.00
2018-06-20T05:08:07.831Z,4388.00
2018-06-20T05:09:07.776Z,4496.00
2018-06-20T05:10:07.723Z,4528.00
2018-06-20T05:11:07.657Z,4432.00
2018-06-20T05:12:07.607Z,4396.00
2018-06-20T05:13:07.543Z,4400.00
2018-06-20T05:14:07.478Z,4436.00
2018-06-20T05:15:07.420Z,4508.00
2018-06-20T05:16:07.378Z,4496.00
2018-06-20T05:17:07.302Z,4444.00
2018-06-20T05:18:07.245Z,4428.00
2018-06-20T05:19:07.189Z,4428.00
2018-06-20T05:20:07.128Z,4380.00
2018-06-20T05:21:07.072Z,4304.00
2018-06-20T05:22:07.008Z,4236.00
2018-06-20T05:23:06.951Z,4288.00
2018-06-20T05:24:06.897Z,4428.00
2018-06-20T05:25:06.835Z,4568.00
2018-06-20T05:26:06.776Z,4688.00
2018-06-20T05:27:06.730Z,4820.00
2018-06-20T05:28:06.657Z,4892.00
2018-06-20T05:29:06.608Z,4896.00
2018-06-20T05:30:06.541Z,4864.00
2018-06-20T05:31:06.485Z,4868.00
2018-06-20T05:32:06.431Z,4904.00
2018-06-20T05:33:06.371Z,4968.00
2018-06-20T05:34:06.311Z,5000.00
2018-06-20T05:35:06.246Z,4992.00
2018-06-20T05:36:06.195Z,5040.00
2018-06-20T05:37:06.129Z,5172.00
2018-06-20T05:38:06.090Z,5312.00
2018-06-20T05:39:06.013Z,5484.00
2018-06-20T05:40:05.953Z,5696.00
2018-06-20T05:41:05.898Z,5880.00
2018-06-20T05:42:05.842Z,5984.00
2018-06-20T05:43:05.788Z,6088.00
2018-06-20T05:44:05.726Z,6196.00
2018-06-20T05:45:05.668Z,6300.00
2018-06-20T05:46:05.610Z,6444.00
2018-06-20T05:47:05.550Z,6648.00
2018-06-20T05:48:05.489Z,6816.00
2018-06-20T05:49:05.432Z,6844.00
2018-06-20T05:50:05.378Z,6892.00
2018-06-20T05:51:05.316Z,7000.00
2018-06-20T05:52:05.270Z,7164.00
2018-06-20T05:53:05.242Z,7352.00
2018-06-20T05:54:05.149Z,7620.00
2018-06-20T05:55:05.084Z,7876.00
2018-06-20T05:56:05.028Z,8084.00
2018-06-20T05:57:04.968Z,8244.00
2018-06-20T05:58:04.910Z,8332.00
2018-06-20T05:59:04.859Z,8316.00
2018-06-20T06:00:04.794Z,8260.00
2018-06-20T06:01:04.738Z,8180.00
2018-06-20T06:02:04.681Z,8184.00
2018-06-20T06:03:04.632Z,8200.00
2018-06-20T06:04:04.567Z,8324.00
2018-06-20T06:05:04.505Z,8592.00
2018-06-20T06:06:04.447Z,8920.00
2018-06-20T06:07:04.387Z,9052.00
2018-06-20T06:08:04.327Z,8988.00
2018-06-20T06:09:04.283Z,8968.00
2018-06-20T06:10:04.236Z,9084.00
2018-06-20T06:11:04.170Z,9156.00
2018-06-20T06:12:04.117Z,9188.00
2018-06-20T06:13:04.046Z,9204.00
2018-06-20T06:14:03.982Z,9228.00
2018-06-20T06:15:03.932Z,9344.00
2018-06-20T06:16:03.876Z,9492.00
2018-06-20T06:17:03.919Z,9616.00
2018-06-20T06:18:03.758Z,9748.00
2018-06-20T06:19:03.694Z,9972.00
2018-06-20T06:20:03.642Z,10112.00
2018-06-20T06:21:03.586Z,10248.00
2018-06-20T06:22:03.527Z,10428.00
2018-06-20T06:23:03.470Z,10652.00
2018-06-20T06:24:03.418Z,11052.00
2018-06-20T06:25:03.355Z,11288.00
2018-06-20T06:26:03.294Z,11308.00
2018-06-20T06:27:03.234Z,11372.00
2018-06-20T06:28:03.183Z,11444.00
2018-06-20T06:29:03.151Z,11524.00
2018-06-20T06:30:03.127Z,11620.00
2018-06-20T06:31:03.019Z,11832.00
2018-06-20T06:32:02.954Z,11824.00
2018-06-20T06:33:02.896Z,11796.00
2018-06-20T06:34:02.837Z,11864.00
2018-06-20T06:35:02.781Z,12088.00
2018-06-20T06:36:02.727Z,12260.00
2018-06-20T06:37:02.671Z,12404.00
2018-06-20T06:38:02.621Z,12428.00
2018-06-20T06:39:02.549Z,12292.00
2018-06-20T06:40:02.715Z,12312.00
2018-06-20T06:41:02.449Z,12504.00
2018-06-20T06:42:02.378Z,12728.00
2018-06-20T06:43:02.329Z,12812.00
2018-06-20T06:44:02.306Z,12968.00
2018-06-20T06:45:02.216Z,13080.00
2018-06-20T06:46:02.162Z,13116.00
2018-06-20T06:47:02.101Z,13244.00
2018-06-20T06:48:02.066Z,13332.00
2018-06-20T06:49:01.981Z,13480.00
2018-06-20T06:50:01.939Z,13544.00
2018-06-20T06:51:01.908Z,13576.00
2018-06-20T06:52:01.825Z,13740.00
2018-06-20T06:53:01.780Z,13680.00
2018-06-20T06:54:01.700Z,13648.00
2018-06-20T06:55:01.643Z,13672.00
2018-06-20T06:56:01.616Z,13836.00
2018-06-20T06:57:01.536Z,14008.00
2018-06-20T06:58:01.476Z,13960.00
2018-06-20T06:59:01.450Z,13940.00
2018-06-20T07:00:01.366Z,14012.00
2018-06-20T07:01:01.315Z,13988.00
2018-06-20T07:02:01.247Z,14148.00
2018-06-20T07:03:01.188Z,14312.00
2018-06-20T07:04:01.138Z,14368.00
2018-06-20T07:05:01.090Z,14352.00
2018-06-20T07:06:01.022Z,14344.00
2018-06-20T07:07:00.969Z,14404.00
2018-06-20T07:08:00.914Z,14360.00
2018-06-20T07:09:00.862Z,14432.00
2018-06-20T07:10:00.799Z,14548.00
2018-06-20T07:11:00.765Z,14604.00
2018-06-20T07:12:00.695Z,14840.00
2018-06-20T07:13:00.628Z,15040.00
2018-06-20T07:14:00.574Z,15144.00
2018-06-20T07:15:00.525Z,15372.00
2018-06-20T07:16:00.462Z,15268.00
2018-06-20T07:17:00.402Z,15128.00
2018-06-20T07:18:00.350Z,15076.00
2018-06-20T07:19:00.301Z,15144.00
2018-06-20T07:20:00.239Z,15188.00
2018-06-20T07:21:00.182Z,15284.00
2018-06-20T07:22:00.123Z,15184.00
2018-06-20T07:23:00.065Z,15204.00
2018-06-20T07:24:00.030Z,15236.00
2018-06-20T07:24:59.964Z,15344.00
2018-06-20T07:25:59.913Z,15464.00
2018-06-20T07:26:59.865Z,15696.00
2018-06-20T07:27:59.793Z,15764.00
2018-06-20T07:28:59.757Z,15900.00
2018-06-20T07:29:59.745Z,15972.00
2018-06-20T07:30:59.628Z,16004.00
2018-06-20T07:31:59.581Z,16276.00
2018-06-20T07:32:59.513Z,16512.00
2018-06-20T07:33:59.461Z,16744.00
2018-06-20T07:34:59.402Z,16916.00
2018-06-20T07:35:59.429Z,17088.00
2018-06-20T07:36:59.334Z,17152.00
2018-06-20T07:37:59.248Z,17408.00
2018-06-20T07:38:59.182Z,17440.00
2018-06-20T07:39:59.136Z,17440.00
2018-06-20T07:40:59.069Z,17376.00
2018-06-20T07:41:59.011Z,17504.00
2018-06-20T07:42:58.953Z,17600.00
2018-06-20T07:43:58.896Z,17824.00
2018-06-20T07:44:58.884Z,17920.00
2018-06-20T07:45:58.793Z,17952.00
2018-06-20T07:46:58.738Z,17824.00
2018-06-20T07:47:58.741Z,17632.00
2018-06-20T07:48:58.622Z,17504.00
2018-06-20T07:49:58.570Z,17568.00
2018-06-20T07:50:58.520Z,18048.00
2018-06-20T07:51:58.459Z,18144.00
2018-06-20T07:52:58.403Z,18400.00
2018-06-20T07:53:58.353Z,18592.00
2018-06-20T07:54:58.304Z,18592.00
2018-06-20T07:55:58.240Z,18464.00
2018-06-20T07:56:58.180Z,18464.00
2018-06-20T07:57:58.134Z,18304.00
2018-06-20T07:58:58.089Z,18336.00
2018-06-20T07:59:58.029Z,18560.00
2018-06-20T08:00:58.225Z,18560.00
2018-06-20T08:01:57.907Z,18592.00
2018-06-20T08:02:57.855Z,18784.00
2018-06-20T08:03:57.804Z,18848.00
2018-06-20T08:04:57.773Z,18976.00
2018-06-20T08:05:57.697Z,19104.00
2018-06-20T08:06:57.644Z,19200.00
2018-06-20T08:07:57.582Z,19200.00
2018-06-20T08:08:57.525Z,19168.00
2018-06-20T08:09:57.477Z,19296.00
2018-06-20T08:10:57.420Z,19456.00
2018-06-20T08:11:57.362Z,19456.00
2018-06-20T08:12:57.310Z,19520.00
2018-06-20T08:13:57.283Z,19488.00
2018-06-20T08:14:57.216Z,19520.00
2018-06-20T08:15:57.155Z,19744.00
2018-06-20T08:16:57.091Z,19968.00
2018-06-20T08:17:57.046Z,20256.00
2018-06-20T08:18:57.052Z,20544.00
2018-06-20T08:19:56.926Z,20672.00
2018-06-20T08:20:56.873Z,20736.00
2018-06-20T08:21:56.816Z,20640.00
2018-06-20T08:22:56.766Z,20704.00
2018-06-20T08:23:56.712Z,20672.00
2018-06-20T08:24:56.666Z,20672.00
2018-06-20T08:25:56.603Z,20640.00
2018-06-20T08:26:56.546Z,20704.00
2018-06-20T08:27:56.494Z,20928.00
2018-06-20T08:28:56.438Z,21152.00
2018-06-20T08:29:56.380Z,21344.00
2018-06-20T08:30:56.328Z,21472.00
2018-06-20T08:31:56.271Z,21568.00
2018-06-20T08:32:56.217Z,21760.00
2018-06-20T08:33:56.167Z,21760.00
2018-06-20T08:34:56.118Z,21984.00
2018-06-20T08:35:56.068Z,22048.00
2018-06-20T08:36:56.005Z,22144.00
2018-06-20T08:37:55.951Z,22240.00
2018-06-20T08:38:55.901Z,22336.00
2018-06-20T08:39:55.843Z,22432.00
2018-06-20T08:40:55.790Z,22560.00
2018-06-20T08:41:55.729Z,22496.00
2018-06-20T08:42:55.677Z,22464.00
2018-06-20T08:43:55.623Z,22432.00
2018-06-20T08:44:55.568Z,22496.00
2018-06-20T08:45:55.521Z,22560.00
2018-06-20T08:46:55.464Z,22592.00
2018-06-20T08:47:55.409Z,22656.00
2018-06-20T08:48:55.355Z,22752.00
2018-06-20T08:49:55.309Z,22880.00
2018-06-20T08:50:55.253Z,22816.00
2018-06-20T08:51:55.243Z,22752.00
2018-06-20T08:52:55.146Z,22752.00
2018-06-20T08:53:55.085Z,22752.00
2018-06-20T08:54:55.033Z,22944.00
2018-06-20T08:55:55.029Z,23264.00
2018-06-20T08:56:54.949Z,23488.00
2018-06-20T08:57:54.880Z,23744.00
2018-06-20T08:58:54.822Z,23968.00
2018-06-20T08:59:54.805Z,24160.00
2018-06-20T09:00:54.709Z,24320.00
2018-06-20T09:01:54.655Z,24480.00
2018-06-20T09:02:54.612Z,24512.00
2018-06-20T09:03:54.545Z,24320.00
2018-06-20T09:04:54.503Z,24160.00
2018-06-20T09:05:54.445Z,23968.00
2018-06-20T09:06:54.396Z,24000.00
2018-06-20T09:07:54.332Z,24256.00
2018-06-20T09:08:54.282Z,24352.00
2018-06-20T09:09:54.227Z,24384.00
2018-06-20T09:10:54.180Z,24480.00
2018-06-20T09:11:54.131Z,24704.00
2018-06-20T09:12:54.070Z,25024.00
2018-06-20T09:13:54.009Z,25088.00
2018-06-20T09:14:54.017Z,25088.00
2018-06-20T09:15:53.913Z,25056.00
2018-06-20T09:16:53.873Z,24864.00
2018-06-20T09:17:53.803Z,24832.00
2018-06-20T09:18:53.751Z,24896.00
2018-06-20T09:19:53.694Z,25120.00
2018-06-20T09:20:53.636Z,25152.00
2018-06-20T09:21:53.607Z,25344.00
2018-06-20T09:22:53.534Z,25728.00
2018-06-20T09:23:53.499Z,25824.00
2018-06-20T09:24:53.425Z,25824.00
2018-06-20T09:25:53.372Z,25696.00
2018-06-20T09:26:53.318Z,25632.00
2018-06-20T09:27:53.264Z,25536.00
2018-06-20T09:28:53.216Z,25408.00
2018-06-20T09:29:53.163Z,25152.00
2018-06-20T09:30:53.111Z,25120.00
2018-06-20T09:31:53.053Z,25056.00
2018-06-20T09:32:52.994Z,24352.00
2018-06-20T09:33:52.938Z,23808.00
2018-06-20T09:34:52.891Z,22912.00
2018-06-20T09:35:52.832Z,21952.00
2018-06-20T09:36:52.781Z,20992.00
2018-06-20T09:37:52.731Z,20032.00
2018-06-20T09:38:52.680Z,19072.00
2018-06-20T09:39:52.627Z,18304.00
2018-06-20T09:40:52.581Z,18112.00
2018-06-20T09:41:52.527Z,18720.00
2018-06-20T09:42:52.467Z,19776.00
2018-06-20T09:43:52.413Z,20608.00
2018-06-20T09:44:52.357Z,21344.00
2018-06-20T09:45:52.306Z,22432.00
2018-06-20T09:46:52.250Z,23328.00
2018-06-20T09:47:52.197Z,22624.00
2018-06-20T09:48:52.159Z,21984.00
2018-06-20T09:49:52.089Z,21568.00
2018-06-20T09:50:52.040Z,21344.00
2018-06-20T09:51:51.984Z,21792.00
2018-06-20T09:52:51.932Z,22496.00
2018-06-20T09:53:51.874Z,22752.00
2018-06-20T09:54:51.823Z,23072.00
2018-06-20T09:55:51.778Z,23232.00
2018-06-20T09:56:51.725Z,23200.00
2018-06-20T09:57:51.674Z,22976.00
2018-06-20T09:58:51.611Z,22880.00
2018-06-20T09:59:51.560Z,22400.00
2018-06-20T10:00:51.510Z,22208.00
2018-06-20T10:01:51.453Z,22816.00
2018-06-20T10:02:51.404Z,23584.00
2018-06-20T10:03:51.349Z,23840.00
2018-06-20T10:04:51.292Z,23232.00
2018-06-20T10:05:51.237Z,22912.00
2018-06-20T10:06:51.226Z,22240.00
2018-06-20T10:07:51.134Z,21216.00
2018-06-20T10:08:51.078Z,20320.00
2018-06-20T10:09:51.027Z,18752.00
2018-06-20T10:10:50.973Z,17312.00
2018-06-20T10:11:50.919Z,16220.00
2018-06-20T10:12:50.862Z,15768.00
2018-06-20T10:13:50.812Z,15128.00
2018-06-20T10:14:50.767Z,14312.00
2018-06-20T10:15:50.716Z,13568.00
2018-06-20T10:16:50.652Z,13028.00
2018-06-20T10:17:50.598Z,12624.00
2018-06-20T10:18:50.545Z,12752.00
2018-06-20T10:19:50.499Z,13752.00
2018-06-20T10:20:50.443Z,15892.00
2018-06-20T10:21:50.387Z,18880.00
2018-06-20T10:22:50.331Z,22144.00
2018-06-20T10:23:50.278Z,25920.00
2018-06-20T10:24:50.225Z,28928.00
2018-06-20T10:25:50.171Z,30592.00
2018-06-20T10:26:50.117Z,32064.00
2018-06-20T10:27:50.063Z,32928.00
2018-06-20T10:28:50.012Z,33856.00
2018-06-20T10:29:49.949Z,34880.00
2018-06-20T10:30:49.907Z,33600.00
2018-06-20T10:31:49.852Z,32832.00
2018-06-20T10:32:49.790Z,32032.00
2018-06-20T10:33:49.745Z,31360.00
2018-06-20T10:34:49.691Z,31296.00
2018-06-20T10:35:49.634Z,31232.00
2018-06-20T10:36:49.584Z,30560.00
2018-06-20T10:37:49.536Z,30080.00
2018-06-20T10:38:49.474Z,29568.00
2018-06-20T10:39:49.428Z,29056.00
2018-06-20T10:40:49.373Z,28896.00
2018-06-20T10:41:49.318Z,29152.00
2018-06-20T10:42:49.266Z,28928.00
2018-06-20T10:43:49.332Z,28992.00
2018-06-20T10:44:49.157Z,29024.00
2018-06-20T10:45:49.112Z,29760.00
2018-06-20T10:46:49.058Z,30656.00
2018-06-20T10:47:49.002Z,31584.00
2018-06-20T10:48:48.953Z,32032.00
2018-06-20T10:49:48.906Z,31808.00
2018-06-20T10:50:48.852Z,31936.00
2018-06-20T10:51:48.806Z,32640.00
2018-06-20T10:52:48.751Z,33952.00
2018-06-20T10:53:48.685Z,35520.00
2018-06-20T10:54:48.638Z,36800.00
2018-06-20T10:55:48.589Z,36672.00
2018-06-20T10:56:48.528Z,35936.00
2018-06-20T10:57:48.485Z,35232.00
2018-06-20T10:58:48.432Z,34976.00
2018-06-20T10:59:48.373Z,34496.00
2018-06-20T11:00:48.469Z,34624.00
2018-06-20T11:01:48.277Z,33952.00
2018-06-20T11:02:48.218Z,32768.00
2018-06-20T11:03:48.169Z,32160.00
2018-06-20T11:04:48.112Z,32512.00
2018-06-20T11:05:48.063Z,33248.00
2018-06-20T11:06:48.013Z,31392.00
2018-06-20T11:07:47.961Z,29952.00
2018-06-20T11:08:47.910Z,30880.00
2018-06-20T11:09:47.854Z,32576.00
2018-06-20T11:10:47.803Z,34336.00
2018-06-20T11:11:47.748Z,36768.00
2018-06-20T11:12:47.701Z,40000.00
2018-06-20T11:13:47.649Z,40768.00
2018-06-20T11:14:47.603Z,40544.00
2018-06-20T11:15:47.545Z,38528.00
2018-06-20T11:16:47.493Z,39968.00
2018-06-20T11:17:47.448Z,35520.00
2018-06-20T11:18:47.401Z,35328.00
2018-06-20T11:19:47.338Z,32288.00
2018-06-20T11:20:47.288Z,30272.00
2018-06-20T11:21:47.246Z,30144.00
2018-06-20T11:22:47.186Z,30112.00
2018-06-20T11:23:47.140Z,31264.00
2018-06-20T11:24:47.083Z,33696.00
2018-06-20T11:25:47.030Z,36704.00
2018-06-20T11:26:46.982Z,45312.00
2018-06-20T11:27:46.933Z,42496.00
2018-06-20T11:28:46.894Z,46048.00
2018-06-20T11:29:46.831Z,89760.00
2018-06-20T11:30:46.779Z,75072.00
2018-06-20T11:31:46.721Z,56352.00
2018-06-20T11:32:46.680Z,48416.00
2018-06-20T11:33:46.622Z,35264.00
2018-06-20T11:34:46.576Z,33408.00
2018-06-20T11:35:46.527Z,33376.00
2018-06-20T11:36:46.464Z,28512.00
2018-06-20T11:37:46.426Z,26144.00
2018-06-20T11:38:46.423Z,24352.00
2018-06-20T11:39:46.322Z,22464.00
2018-06-20T11:40:46.270Z,20928.00
2018-06-20T11:41:46.218Z,20160.00
2018-06-20T11:42:46.163Z,20256.00
2018-06-20T11:43:46.118Z,21728.00
2018-06-20T11:44:46.061Z,24640.00
2018-06-20T11:45:46.018Z,32352.00
2018-06-20T11:46:45.966Z,37088.00
2018-06-20T11:47:45.905Z,35392.00
2018-06-20T11:48:45.859Z,35648.00
2018-06-20T11:49:45.811Z,39872.00
2018-06-20T11:50:45.759Z,37344.00
2018-06-20T11:51:45.708Z,33664.00
2018-06-20T11:52:45.660Z,32256.00
2018-06-20T11:53:45.606Z,31008.00
2018-06-20T11:54:45.548Z,30464.00
2018-06-20T11:55:45.502Z,25888.00
2018-06-20T11:56:45.447Z,22848.00
2018-06-20T11:57:45.403Z,21248.00
2018-06-20T11:58:45.362Z,19520.00
2018-06-20T11:59:45.300Z,18272.00
2018-06-20T12:00:45.261Z,17088.00
2018-06-20T12:01:45.254Z,15488.00
2018-06-20T12:02:45.149Z,14888.00
2018-06-20T12:03:45.092Z,14544.00
2018-06-20T12:04:45.039Z,14400.00
2018-06-20T12:05:44.988Z,15008.00
2018-06-20T12:06:44.933Z,16276.00
2018-06-20T12:07:44.880Z,17952.00
2018-06-20T12:08:44.831Z,19680.00
2018-06-20T12:09:44.784Z,21600.00